sensor_id;sensor_type;location;lat;lon;timestamp;P1;durP1;ratioP1;P2;durP2;ratioP2
12208;SDS011;6167;43.080;25.634;2023-07-09T00:02:14;19.08;;;12.45;;
12208;SDS011;6167;43.080;25.634;2023-07-09T00:04:41;17.50;;;12.00;;
12208;SDS011;6167;43.080;25.634;2023-07-09T00:07:13;23.98;;;13.43;;
12208;SDS011;6167;43.080;25.634;2023-07-09T00:09:41;16.98;;;11.27;;
12208;SDS011;6167;43.080;25.634;2023-07-09T00:12:09;14.38;;;10.77;;
12208;SDS011;6167;43.080;25.634;2023-07-09T00:14:38;19.33;;;10.98;;
12208;SDS011;6167;43.080;25.634;2023-07-09T00:17:07;17.35;;;10.18;;
12208;SDS011;6167;43.080;25.634;2023-07-09T00:19:34;14.07;;;9.85;;
12208;SDS011;6167;43.080;25.634;2023-07-09T00:22:01;15.30;;;10.18;;
12208;SDS011;6167;43.080;25.634;2023-07-09T00:24:29;38.92;;;10.55;;
12208;SDS011;6167;43.080;25.634;2023-07-09T00:26:55;19.08;;;9.20;;
12208;SDS011;6167;43.080;25.634;2023-07-09T00:29:22;13.35;;;9.40;;
12208;SDS011;6167;43.080;25.634;2023-07-09T00:31:48;11.07;;;9.02;;
12208;SDS011;6167;43.080;25.634;2023-07-09T00:34:15;29.02;;;10.25;;
12208;SDS011;6167;43.080;25.634;2023-07-09T00:36:42;22.60;;;10.95;;
12208;SDS011;6167;43.080;25.634;2023-07-09T00:39:11;15.98;;;10.45;;
12208;SDS011;6167;43.080;25.634;2023-07-09T00:41:44;69.70;;;12.68;;
12208;SDS011;6167;43.080;25.634;2023-07-09T00:44:23;19.88;;;11.90;;
12208;SDS011;6167;43.080;25.634;2023-07-09T00:49:49;108.43;;;13.32;;
12208;SDS011;6167;43.080;25.634;2023-07-09T00:52:25;38.72;;;12.07;;
12208;SDS011;6167;43.080;25.634;2023-07-09T00:54:55;25.42;;;11.27;;
12208;SDS011;6167;43.080;25.634;2023-07-09T00:57:24;104.35;;;13.32;;
12208;SDS011;6167;43.080;25.634;2023-07-09T00:59:52;64.45;;;12.27;;
12208;SDS011;6167;43.080;25.634;2023-07-09T01:02:21;11.70;;;10.50;;
12208;SDS011;6167;43.080;25.634;2023-07-09T01:04:49;12.82;;;10.43;;
12208;SDS011;6167;43.080;25.634;2023-07-09T01:07:16;17.90;;;10.82;;
12208;SDS011;6167;43.080;25.634;2023-07-09T01:09:44;12.30;;;11.00;;
12208;SDS011;6167;43.080;25.634;2023-07-09T01:12:11;16.05;;;10.77;;
12208;SDS011;6167;43.080;25.634;2023-07-09T01:14:40;31.52;;;11.38;;
12208;SDS011;6167;43.080;25.634;2023-07-09T01:17:07;17.13;;;11.63;;
12208;SDS011;6167;43.080;25.634;2023-07-09T01:19:37;17.83;;;10.57;;
12208;SDS011;6167;43.080;25.634;2023-07-09T01:22:10;24.55;;;10.75;;
12208;SDS011;6167;43.080;25.634;2023-07-09T01:24:51;66.55;;;12.20;;
12208;SDS011;6167;43.080;25.634;2023-07-09T01:27:19;178.18;;;13.65;;
12208;SDS011;6167;43.080;25.634;2023-07-09T01:29:47;109.20;;;13.00;;
12208;SDS011;6167;43.080;25.634;2023-07-09T01:32:15;14.43;;;10.95;;
12208;SDS011;6167;43.080;25.634;2023-07-09T01:34:42;76.70;;;13.27;;
12208;SDS011;6167;43.080;25.634;2023-07-09T01:37:10;15.35;;;10.77;;
12208;SDS011;6167;43.080;25.634;2023-07-09T01:39:37;72.90;;;11.90;;
12208;SDS011;6167;43.080;25.634;2023-07-09T01:42:06;44.75;;;11.60;;
12208;SDS011;6167;43.080;25.634;2023-07-09T01:44:33;30.77;;;11.27;;
12208;SDS011;6167;43.080;25.634;2023-07-09T01:47:00;14.40;;;11.23;;
12208;SDS011;6167;43.080;25.634;2023-07-09T01:49:29;16.98;;;10.65;;
12208;SDS011;6167;43.080;25.634;2023-07-09T01:51:57;26.35;;;11.10;;
12208;SDS011;6167;43.080;25.634;2023-07-09T01:54:27;16.65;;;10.35;;
12208;SDS011;6167;43.080;25.634;2023-07-09T01:56:54;13.45;;;9.93;;
12208;SDS011;6167;43.080;25.634;2023-07-09T01:59:26;12.57;;;9.88;;
12208;SDS011;6167;43.080;25.634;2023-07-09T02:01:53;15.02;;;10.73;;
12208;SDS011;6167;43.080;25.634;2023-07-09T02:04:22;16.08;;;10.90;;
12208;SDS011;6167;43.080;25.634;2023-07-09T02:06:52;12.40;;;11.10;;
12208;SDS011;6167;43.080;25.634;2023-07-09T02:09:19;15.15;;;11.00;;
12208;SDS011;6167;43.080;25.634;2023-07-09T02:11:46;16.63;;;11.20;;
12208;SDS011;6167;43.080;25.634;2023-07-09T02:14:13;18.08;;;10.95;;
12208;SDS011;6167;43.080;25.634;2023-07-09T02:16:40;39.58;;;9.73;;
12208;SDS011;6167;43.080;25.634;2023-07-09T02:19:07;28.75;;;8.27;;
12208;SDS011;6167;43.080;25.634;2023-07-09T02:21:33;12.55;;;7.30;;
12208;SDS011;6167;43.080;25.634;2023-07-09T02:24:00;53.47;;;10.68;;
12208;SDS011;6167;43.080;25.634;2023-07-09T02:26:26;12.20;;;8.20;;
12208;SDS011;6167;43.080;25.634;2023-07-09T02:28:54;13.63;;;9.93;;
12208;SDS011;6167;43.080;25.634;2023-07-09T02:31:20;10.55;;;8.50;;
12208;SDS011;6167;43.080;25.634;2023-07-09T02:33:47;12.85;;;9.70;;
12208;SDS011;6167;43.080;25.634;2023-07-09T02:36:13;12.40;;;8.68;;
12208;SDS011;6167;43.080;25.634;2023-07-09T02:38:40;10.70;;;8.35;;
12208;SDS011;6167;43.080;25.634;2023-07-09T02:41:06;10.63;;;8.60;;
12208;SDS011;6167;43.080;25.634;2023-07-09T02:43:33;12.82;;;8.57;;
12208;SDS011;6167;43.080;25.634;2023-07-09T02:46:01;9.55;;;7.68;;
12208;SDS011;6167;43.080;25.634;2023-07-09T02:48:28;10.43;;;7.90;;
12208;SDS011;6167;43.080;25.634;2023-07-09T02:50:54;9.70;;;7.65;;
12208;SDS011;6167;43.080;25.634;2023-07-09T02:53:21;12.55;;;8.98;;
12208;SDS011;6167;43.080;25.634;2023-07-09T02:55:47;11.50;;;8.13;;
12208;SDS011;6167;43.080;25.634;2023-07-09T02:58:14;11.32;;;7.45;;
12208;SDS011;6167;43.080;25.634;2023-07-09T03:00:41;15.50;;;8.43;;
12208;SDS011;6167;43.080;25.634;2023-07-09T03:03:09;12.13;;;8.38;;
12208;SDS011;6167;43.080;25.634;2023-07-09T03:05:35;9.30;;;8.05;;
12208;SDS011;6167;43.080;25.634;2023-07-09T03:08:02;14.60;;;8.68;;
12208;SDS011;6167;43.080;25.634;2023-07-09T03:10:28;15.30;;;8.77;;
12208;SDS011;6167;43.080;25.634;2023-07-09T03:12:55;20.40;;;8.40;;
12208;SDS011;6167;43.080;25.634;2023-07-09T03:15:21;11.55;;;7.53;;
12208;SDS011;6167;43.080;25.634;2023-07-09T03:17:48;11.38;;;7.32;;
12208;SDS011;6167;43.080;25.634;2023-07-09T03:20:16;14.00;;;7.85;;
12208;SDS011;6167;43.080;25.634;2023-07-09T03:22:42;9.85;;;7.35;;
12208;SDS011;6167;43.080;25.634;2023-07-09T03:25:09;11.80;;;7.45;;
12208;SDS011;6167;43.080;25.634;2023-07-09T03:27:35;39.30;;;8.60;;
12208;SDS011;6167;43.080;25.634;2023-07-09T03:30:02;13.00;;;8.35;;
12208;SDS011;6167;43.080;25.634;2023-07-09T03:32:29;10.13;;;8.73;;
12208;SDS011;6167;43.080;25.634;2023-07-09T03:34:55;28.48;;;10.75;;
12208;SDS011;6167;43.080;25.634;2023-07-09T03:37:23;16.67;;;11.30;;
12208;SDS011;6167;43.080;25.634;2023-07-09T03:39:50;42.70;;;14.23;;
12208;SDS011;6167;43.080;25.634;2023-07-09T03:42:16;21.70;;;14.57;;
12208;SDS011;6167;43.080;25.634;2023-07-09T03:44:43;33.55;;;19.58;;
12208;SDS011;6167;43.080;25.634;2023-07-09T03:47:09;38.72;;;20.02;;
12208;SDS011;6167;43.080;25.634;2023-07-09T03:49:36;31.27;;;18.15;;
12208;SDS011;6167;43.080;25.634;2023-07-09T03:52:02;34.30;;;20.70;;
12208;SDS011;6167;43.080;25.634;2023-07-09T03:54:30;31.45;;;20.70;;
12208;SDS011;6167;43.080;25.634;2023-07-09T03:56:57;46.28;;;23.60;;
12208;SDS011;6167;43.080;25.634;2023-07-09T03:59:23;43.40;;;23.90;;
12208;SDS011;6167;43.080;25.634;2023-07-09T04:01:50;40.50;;;25.10;;
12208;SDS011;6167;43.080;25.634;2023-07-09T04:04:16;70.72;;;26.45;;
12208;SDS011;6167;43.080;25.634;2023-07-09T04:06:45;44.10;;;26.63;;
12208;SDS011;6167;43.080;25.634;2023-07-09T04:09:11;75.68;;;27.73;;
12208;SDS011;6167;43.080;25.634;2023-07-09T04:11:39;38.75;;;26.05;;
12208;SDS011;6167;43.080;25.634;2023-07-09T04:14:06;52.58;;;27.30;;
12208;SDS011;6167;43.080;25.634;2023-07-09T04:16:32;48.63;;;27.45;;
12208;SDS011;6167;43.080;25.634;2023-07-09T04:18:59;66.03;;;28.35;;
12208;SDS011;6167;43.080;25.634;2023-07-09T04:21:27;44.63;;;28.20;;
12208;SDS011;6167;43.080;25.634;2023-07-09T04:23:54;39.65;;;26.23;;
12208;SDS011;6167;43.080;25.634;2023-07-09T04:26:20;58.90;;;30.00;;
12208;SDS011;6167;43.080;25.634;2023-07-09T04:28:50;51.90;;;31.30;;
12208;SDS011;6167;43.080;25.634;2023-07-09T04:31:16;67.10;;;33.55;;
12208;SDS011;6167;43.080;25.634;2023-07-09T04:33:43;59.88;;;33.08;;
12208;SDS011;6167;43.080;25.634;2023-07-09T04:36:10;55.97;;;34.40;;
12208;SDS011;6167;43.080;25.634;2023-07-09T04:38:38;41.53;;;31.52;;
12208;SDS011;6167;43.080;25.634;2023-07-09T04:41:04;46.05;;;31.92;;
12208;SDS011;6167;43.080;25.634;2023-07-09T04:43:32;44.22;;;30.95;;
12208;SDS011;6167;43.080;25.634;2023-07-09T04:46:00;49.50;;;31.75;;
12208;SDS011;6167;43.080;25.634;2023-07-09T04:48:26;47.78;;;31.15;;
12208;SDS011;6167;43.080;25.634;2023-07-09T04:50:53;45.58;;;32.53;;
12208;SDS011;6167;43.080;25.634;2023-07-09T04:53:20;53.55;;;32.75;;
12208;SDS011;6167;43.080;25.634;2023-07-09T04:55:49;44.95;;;31.08;;
12208;SDS011;6167;43.080;25.634;2023-07-09T04:58:16;42.33;;;31.20;;
12208;SDS011;6167;43.080;25.634;2023-07-09T05:00:43;50.22;;;32.97;;
12208;SDS011;6167;43.080;25.634;2023-07-09T05:03:11;49.85;;;32.47;;
12208;SDS011;6167;43.080;25.634;2023-07-09T05:05:41;47.55;;;32.55;;
12208;SDS011;6167;43.080;25.634;2023-07-09T05:08:08;50.55;;;36.42;;
12208;SDS011;6167;43.080;25.634;2023-07-09T05:10:35;42.65;;;34.72;;
12208;SDS011;6167;43.080;25.634;2023-07-09T05:13:06;45.08;;;36.00;;
12208;SDS011;6167;43.080;25.634;2023-07-09T05:15:33;49.83;;;37.47;;
12208;SDS011;6167;43.080;25.634;2023-07-09T05:17:59;47.35;;;33.88;;
12208;SDS011;6167;43.080;25.634;2023-07-09T05:20:27;46.50;;;35.00;;
12208;SDS011;6167;43.080;25.634;2023-07-09T05:22:54;43.15;;;34.10;;
12208;SDS011;6167;43.080;25.634;2023-07-09T05:25:20;42.38;;;31.23;;
12208;SDS011;6167;43.080;25.634;2023-07-09T05:27:47;41.45;;;30.52;;
12208;SDS011;6167;43.080;25.634;2023-07-09T05:30:13;36.53;;;27.40;;
12208;SDS011;6167;43.080;25.634;2023-07-09T05:32:40;33.70;;;25.90;;
12208;SDS011;6167;43.080;25.634;2023-07-09T05:35:07;36.92;;;25.35;;
12208;SDS011;6167;43.080;25.634;2023-07-09T05:37:35;28.17;;;23.40;;
12208;SDS011;6167;43.080;25.634;2023-07-09T05:40:03;30.73;;;22.67;;
12208;SDS011;6167;43.080;25.634;2023-07-09T05:42:30;26.95;;;21.63;;
12208;SDS011;6167;43.080;25.634;2023-07-09T05:44:56;30.00;;;22.15;;
12208;SDS011;6167;43.080;25.634;2023-07-09T05:47:23;25.83;;;19.92;;
12208;SDS011;6167;43.080;25.634;2023-07-09T05:49:50;24.48;;;19.05;;
12208;SDS011;6167;43.080;25.634;2023-07-09T05:52:16;27.73;;;19.27;;
12208;SDS011;6167;43.080;25.634;2023-07-09T05:54:45;21.30;;;17.48;;
12208;SDS011;6167;43.080;25.634;2023-07-09T05:57:11;21.42;;;16.88;;
12208;SDS011;6167;43.080;25.634;2023-07-09T05:59:38;23.90;;;17.30;;
12208;SDS011;6167;43.080;25.634;2023-07-09T06:02:06;19.13;;;16.77;;
12208;SDS011;6167;43.080;25.634;2023-07-09T06:04:33;20.23;;;15.32;;
12208;SDS011;6167;43.080;25.634;2023-07-09T06:07:00;16.33;;;13.70;;
12208;SDS011;6167;43.080;25.634;2023-07-09T06:09:29;15.90;;;13.85;;
12208;SDS011;6167;43.080;25.634;2023-07-09T06:11:57;15.45;;;13.40;;
12208;SDS011;6167;43.080;25.634;2023-07-09T06:14:25;20.25;;;13.02;;
12208;SDS011;6167;43.080;25.634;2023-07-09T06:16:51;18.00;;;13.13;;
12208;SDS011;6167;43.080;25.634;2023-07-09T06:19:18;13.05;;;11.63;;
12208;SDS011;6167;43.080;25.634;2023-07-09T06:21:44;14.60;;;12.07;;
12208;SDS011;6167;43.080;25.634;2023-07-09T06:24:11;16.30;;;11.07;;
12208;SDS011;6167;43.080;25.634;2023-07-09T06:26:38;14.05;;;11.05;;
12208;SDS011;6167;43.080;25.634;2023-07-09T06:29:06;11.77;;;10.60;;
12208;SDS011;6167;43.080;25.634;2023-07-09T06:31:32;9.70;;;7.95;;
12208;SDS011;6167;43.080;25.634;2023-07-09T06:33:59;7.40;;;5.93;;
12208;SDS011;6167;43.080;25.634;2023-07-09T06:36:25;7.80;;;6.00;;
12208;SDS011;6167;43.080;25.634;2023-07-09T06:38:52;6.57;;;5.90;;
12208;SDS011;6167;43.080;25.634;2023-07-09T06:41:19;6.07;;;5.18;;
12208;SDS011;6167;43.080;25.634;2023-07-09T06:43:46;5.80;;;5.25;;
12208;SDS011;6167;43.080;25.634;2023-07-09T06:46:15;5.63;;;4.97;;
12208;SDS011;6167;43.080;25.634;2023-07-09T06:48:41;5.15;;;4.57;;
12208;SDS011;6167;43.080;25.634;2023-07-09T06:51:08;5.53;;;4.68;;
12208;SDS011;6167;43.080;25.634;2023-07-09T06:53:34;4.95;;;4.47;;
12208;SDS011;6167;43.080;25.634;2023-07-09T06:56:01;6.32;;;5.00;;
12208;SDS011;6167;43.080;25.634;2023-07-09T06:58:29;6.05;;;4.45;;
12208;SDS011;6167;43.080;25.634;2023-07-09T07:00:57;4.75;;;4.35;;
12208;SDS011;6167;43.080;25.634;2023-07-09T07:03:24;6.38;;;5.72;;
12208;SDS011;6167;43.080;25.634;2023-07-09T07:05:52;5.63;;;4.97;;
12208;SDS011;6167;43.080;25.634;2023-07-09T07:08:20;4.80;;;4.30;;
12208;SDS011;6167;43.080;25.634;2023-07-09T07:10:48;4.85;;;4.40;;
12208;SDS011;6167;43.080;25.634;2023-07-09T07:13:15;4.53;;;4.13;;
12208;SDS011;6167;43.080;25.634;2023-07-09T07:15:41;5.80;;;4.50;;
12208;SDS011;6167;43.080;25.634;2023-07-09T07:18:08;5.47;;;4.20;;
12208;SDS011;6167;43.080;25.634;2023-07-09T07:20:38;4.15;;;3.78;;
12208;SDS011;6167;43.080;25.634;2023-07-09T07:23:04;5.20;;;4.70;;
12208;SDS011;6167;43.080;25.634;2023-07-09T07:25:31;5.22;;;4.72;;
12208;SDS011;6167;43.080;25.634;2023-07-09T07:27:58;4.90;;;4.40;;
12208;SDS011;6167;43.080;25.634;2023-07-09T07:30:24;5.38;;;4.22;;
12208;SDS011;6167;43.080;25.634;2023-07-09T07:32:51;6.35;;;4.13;;
12208;SDS011;6167;43.080;25.634;2023-07-09T07:35:18;4.55;;;4.18;;
12208;SDS011;6167;43.080;25.634;2023-07-09T07:37:46;4.97;;;3.72;;
12208;SDS011;6167;43.080;25.634;2023-07-09T07:40:12;5.18;;;4.70;;
12208;SDS011;6167;43.080;25.634;2023-07-09T07:42:39;4.63;;;4.22;;
12208;SDS011;6167;43.080;25.634;2023-07-09T07:45:05;4.45;;;4.13;;
12208;SDS011;6167;43.080;25.634;2023-07-09T07:47:33;5.03;;;4.35;;
12208;SDS011;6167;43.080;25.634;2023-07-09T07:50:05;4.35;;;3.80;;
12208;SDS011;6167;43.080;25.634;2023-07-09T07:52:32;4.25;;;3.85;;
12208;SDS011;6167;43.080;25.634;2023-07-09T07:55:04;4.70;;;3.30;;
12208;SDS011;6167;43.080;25.634;2023-07-09T07:57:31;3.92;;;3.63;;
12208;SDS011;6167;43.080;25.634;2023-07-09T07:59:57;4.47;;;4.07;;
12208;SDS011;6167;43.080;25.634;2023-07-09T08:02:24;4.00;;;3.60;;
12208;SDS011;6167;43.080;25.634;2023-07-09T08:04:50;5.40;;;3.95;;
12208;SDS011;6167;43.080;25.634;2023-07-09T08:07:18;4.60;;;4.10;;
12208;SDS011;6167;43.080;25.634;2023-07-09T08:09:50;3.90;;;3.60;;
12208;SDS011;6167;43.080;25.634;2023-07-09T08:12:18;4.40;;;4.00;;
12208;SDS011;6167;43.080;25.634;2023-07-09T08:14:45;4.80;;;3.78;;
12208;SDS011;6167;43.080;25.634;2023-07-09T08:17:12;6.15;;;5.13;;
12208;SDS011;6167;43.080;25.634;2023-07-09T08:19:45;6.47;;;5.53;;
12208;SDS011;6167;43.080;25.634;2023-07-09T08:22:12;5.40;;;3.58;;
12208;SDS011;6167;43.080;25.634;2023-07-09T08:24:38;4.97;;;4.00;;
12208;SDS011;6167;43.080;25.634;2023-07-09T08:27:05;5.47;;;4.20;;
12208;SDS011;6167;43.080;25.634;2023-07-09T08:29:33;3.67;;;3.20;;
12208;SDS011;6167;43.080;25.634;2023-07-09T08:32:00;6.30;;;5.28;;
12208;SDS011;6167;43.080;25.634;2023-07-09T08:34:27;3.95;;;3.63;;
12208;SDS011;6167;43.080;25.634;2023-07-09T08:36:53;4.10;;;3.70;;
12208;SDS011;6167;43.080;25.634;2023-07-09T08:39:20;4.82;;;3.35;;
12208;SDS011;6167;43.080;25.634;2023-07-09T08:41:48;3.80;;;3.50;;
12208;SDS011;6167;43.080;25.634;2023-07-09T08:44:27;6.13;;;3.25;;
12208;SDS011;6167;43.080;25.634;2023-07-09T08:47:00;4.65;;;3.17;;
12208;SDS011;6167;43.080;25.634;2023-07-09T08:49:32;4.07;;;3.50;;
12208;SDS011;6167;43.080;25.634;2023-07-09T08:52:00;4.55;;;4.15;;
12208;SDS011;6167;43.080;25.634;2023-07-09T08:54:28;4.80;;;4.28;;
12208;SDS011;6167;43.080;25.634;2023-07-09T08:56:57;4.13;;;3.72;;
12208;SDS011;6167;43.080;25.634;2023-07-09T08:59:26;5.20;;;3.85;;
12208;SDS011;6167;43.080;25.634;2023-07-09T09:01:56;4.20;;;3.80;;
12208;SDS011;6167;43.080;25.634;2023-07-09T09:04:27;3.70;;;3.40;;
12208;SDS011;6167;43.080;25.634;2023-07-09T09:06:56;4.22;;;3.83;;
12208;SDS011;6167;43.080;25.634;2023-07-09T09:09:26;4.40;;;4.00;;
12208;SDS011;6167;43.080;25.634;2023-07-09T09:11:56;4.70;;;3.50;;
12208;SDS011;6167;43.080;25.634;2023-07-09T09:14:26;4.35;;;4.05;;
12208;SDS011;6167;43.080;25.634;2023-07-09T09:16:53;8.65;;;7.45;;
12208;SDS011;6167;43.080;25.634;2023-07-09T09:19:22;5.82;;;5.10;;
12208;SDS011;6167;43.080;25.634;2023-07-09T09:21:54;5.00;;;4.47;;
12208;SDS011;6167;43.080;25.634;2023-07-09T09:24:24;8.95;;;5.43;;
12208;SDS011;6167;43.080;25.634;2023-07-09T09:26:52;7.60;;;5.63;;
12208;SDS011;6167;43.080;25.634;2023-07-09T09:29:19;6.97;;;5.55;;
12208;SDS011;6167;43.080;25.634;2023-07-09T09:31:46;8.98;;;5.55;;
12208;SDS011;6167;43.080;25.634;2023-07-09T09:34:18;4.32;;;3.92;;
12208;SDS011;6167;43.080;25.634;2023-07-09T09:36:46;4.88;;;4.10;;
12208;SDS011;6167;43.080;25.634;2023-07-09T09:39:14;6.60;;;5.57;;
12208;SDS011;6167;43.080;25.634;2023-07-09T09:41:40;7.10;;;5.15;;
12208;SDS011;6167;43.080;25.634;2023-07-09T09:44:17;5.43;;;4.88;;
12208;SDS011;6167;43.080;25.634;2023-07-09T09:46:44;5.35;;;4.85;;
12208;SDS011;6167;43.080;25.634;2023-07-09T09:49:10;7.05;;;4.90;;
12208;SDS011;6167;43.080;25.634;2023-07-09T09:51:39;4.20;;;3.90;;
12208;SDS011;6167;43.080;25.634;2023-07-09T09:54:07;4.95;;;4.20;;
12208;SDS011;6167;43.080;25.634;2023-07-09T09:56:39;6.03;;;4.65;;
12208;SDS011;6167;43.080;25.634;2023-07-09T09:59:13;5.55;;;4.45;;
12208;SDS011;6167;43.080;25.634;2023-07-09T10:01:42;6.82;;;5.10;;
12208;SDS011;6167;43.080;25.634;2023-07-09T10:04:08;14.05;;;9.73;;
12208;SDS011;6167;43.080;25.634;2023-07-09T10:06:37;4.90;;;4.43;;
12208;SDS011;6167;43.080;25.634;2023-07-09T10:09:10;10.38;;;8.18;;
12208;SDS011;6167;43.080;25.634;2023-07-09T10:11:45;5.20;;;4.75;;
12208;SDS011;6167;43.080;25.634;2023-07-09T10:14:15;4.35;;;4.03;;
12208;SDS011;6167;43.080;25.634;2023-07-09T10:16:47;4.65;;;4.25;;
12208;SDS011;6167;43.080;25.634;2023-07-09T10:19:15;6.78;;;3.78;;
12208;SDS011;6167;43.080;25.634;2023-07-09T10:21:45;4.25;;;3.85;;
12208;SDS011;6167;43.080;25.634;2023-07-09T10:24:16;5.60;;;4.43;;
12208;SDS011;6167;43.080;25.634;2023-07-09T10:26:51;5.63;;;4.00;;
12208;SDS011;6167;43.080;25.634;2023-07-09T10:29:26;5.05;;;4.00;;
12208;SDS011;6167;43.080;25.634;2023-07-09T10:31:59;4.60;;;4.30;;
12208;SDS011;6167;43.080;25.634;2023-07-09T10:34:29;4.38;;;3.97;;
12208;SDS011;6167;43.080;25.634;2023-07-09T10:37:02;7.93;;;6.53;;
12208;SDS011;6167;43.080;25.634;2023-07-09T10:39:31;8.82;;;7.82;;
12208;SDS011;6167;43.080;25.634;2023-07-09T10:42:00;9.13;;;6.95;;
12208;SDS011;6167;43.080;25.634;2023-07-09T10:44:28;5.18;;;4.47;;
12208;SDS011;6167;43.080;25.634;2023-07-09T10:46:57;4.20;;;3.90;;
12208;SDS011;6167;43.080;25.634;2023-07-09T10:49:24;4.10;;;3.80;;
12208;SDS011;6167;43.080;25.634;2023-07-09T10:51:59;6.60;;;5.68;;
12208;SDS011;6167;43.080;25.634;2023-07-09T10:54:28;7.88;;;5.55;;
12208;SDS011;6167;43.080;25.634;2023-07-09T10:56:56;5.50;;;3.75;;
12208;SDS011;6167;43.080;25.634;2023-07-09T10:59:26;4.10;;;3.70;;
12208;SDS011;6167;43.080;25.634;2023-07-09T11:01:56;4.93;;;3.53;;
12208;SDS011;6167;43.080;25.634;2023-07-09T11:04:25;4.88;;;4.43;;
12208;SDS011;6167;43.080;25.634;2023-07-09T11:06:55;4.20;;;3.90;;
12208;SDS011;6167;43.080;25.634;2023-07-09T11:09:24;6.22;;;3.70;;
12208;SDS011;6167;43.080;25.634;2023-07-09T11:11:51;4.30;;;3.75;;
12208;SDS011;6167;43.080;25.634;2023-07-09T11:14:24;4.10;;;3.80;;
12208;SDS011;6167;43.080;25.634;2023-07-09T11:16:54;5.13;;;3.80;;
12208;SDS011;6167;43.080;25.634;2023-07-09T11:19:21;3.70;;;3.25;;
12208;SDS011;6167;43.080;25.634;2023-07-09T11:22:02;6.95;;;4.07;;
12208;SDS011;6167;43.080;25.634;2023-07-09T11:24:30;5.00;;;3.92;;
12208;SDS011;6167;43.080;25.634;2023-07-09T11:26:57;3.80;;;3.50;;
12208;SDS011;6167;43.080;25.634;2023-07-09T11:29:26;44.60;;;26.67;;
12208;SDS011;6167;43.080;25.634;2023-07-09T11:32:06;4.15;;;3.80;;
12208;SDS011;6167;43.080;25.634;2023-07-09T11:34:33;3.60;;;3.25;;
12208;SDS011;6167;43.080;25.634;2023-07-09T11:37:00;6.68;;;3.85;;
12208;SDS011;6167;43.080;25.634;2023-07-09T11:39:28;5.22;;;3.67;;
12208;SDS011;6167;43.080;25.634;2023-07-09T11:41:55;6.13;;;4.88;;
12208;SDS011;6167;43.080;25.634;2023-07-09T11:44:22;5.53;;;4.43;;
12208;SDS011;6167;43.080;25.634;2023-07-09T11:47:01;4.38;;;3.95;;
12208;SDS011;6167;43.080;25.634;2023-07-09T11:49:31;4.18;;;3.60;;
12208;SDS011;6167;43.080;25.634;2023-07-09T11:52:02;3.40;;;3.20;;
12208;SDS011;6167;43.080;25.634;2023-07-09T11:54:28;4.55;;;3.22;;
12208;SDS011;6167;43.080;25.634;2023-07-09T11:57:00;6.15;;;3.40;;
12208;SDS011;6167;43.080;25.634;2023-07-09T11:59:26;4.30;;;2.90;;
12208;SDS011;6167;43.080;25.634;2023-07-09T12:01:53;4.07;;;3.70;;
12208;SDS011;6167;43.080;25.634;2023-07-09T12:04:25;5.93;;;4.40;;
12208;SDS011;6167;43.080;25.634;2023-07-09T12:06:57;3.85;;;3.55;;
12208;SDS011;6167;43.080;25.634;2023-07-09T12:09:24;4.93;;;4.53;;
12208;SDS011;6167;43.080;25.634;2023-07-09T12:11:53;3.55;;;3.25;;
12208;SDS011;6167;43.080;25.634;2023-07-09T12:14:20;3.88;;;3.58;;
12208;SDS011;6167;43.080;25.634;2023-07-09T12:16:48;3.22;;;2.92;;
12208;SDS011;6167;43.080;25.634;2023-07-09T12:19:16;5.78;;;5.03;;
12208;SDS011;6167;43.080;25.634;2023-07-09T12:21:45;5.03;;;4.30;;
12208;SDS011;6167;43.080;25.634;2023-07-09T12:24:18;6.07;;;5.45;;
12208;SDS011;6167;43.080;25.634;2023-07-09T12:26:47;14.57;;;13.13;;
12208;SDS011;6167;43.080;25.634;2023-07-09T12:29:14;6.30;;;5.63;;
12208;SDS011;6167;43.080;25.634;2023-07-09T12:31:40;5.95;;;3.70;;
12208;SDS011;6167;43.080;25.634;2023-07-09T12:34:10;10.38;;;7.38;;
12208;SDS011;6167;43.080;25.634;2023-07-09T12:36:38;4.28;;;3.80;;
12208;SDS011;6167;43.080;25.634;2023-07-09T12:39:09;4.10;;;3.70;;
12208;SDS011;6167;43.080;25.634;2023-07-09T12:41:38;4.13;;;3.72;;
12208;SDS011;6167;43.080;25.634;2023-07-09T12:44:05;4.65;;;4.20;;
12208;SDS011;6167;43.080;25.634;2023-07-09T12:46:33;5.28;;;4.78;;
12208;SDS011;6167;43.080;25.634;2023-07-09T12:49:00;5.68;;;4.63;;
12208;SDS011;6167;43.080;25.634;2023-07-09T12:51:28;9.40;;;7.10;;
12208;SDS011;6167;43.080;25.634;2023-07-09T12:54:02;5.18;;;4.32;;
12208;SDS011;6167;43.080;25.634;2023-07-09T12:56:30;4.40;;;4.00;;
12208;SDS011;6167;43.080;25.634;2023-07-09T12:58:59;6.75;;;5.32;;
12208;SDS011;6167;43.080;25.634;2023-07-09T13:01:28;7.30;;;6.57;;
12208;SDS011;6167;43.080;25.634;2023-07-09T13:04:00;5.72;;;4.20;;
12208;SDS011;6167;43.080;25.634;2023-07-09T13:06:35;4.70;;;4.30;;
12208;SDS011;6167;43.080;25.634;2023-07-09T13:09:05;4.65;;;4.10;;
12208;SDS011;6167;43.080;25.634;2023-07-09T13:11:35;4.40;;;4.03;;
12208;SDS011;6167;43.080;25.634;2023-07-09T13:14:03;4.40;;;4.00;;
12208;SDS011;6167;43.080;25.634;2023-07-09T13:19:30;4.20;;;3.90;;
12208;SDS011;6167;43.080;25.634;2023-07-09T13:21:57;4.50;;;3.65;;
12208;SDS011;6167;43.080;25.634;2023-07-09T13:24:24;5.30;;;3.72;;
12208;SDS011;6167;43.080;25.634;2023-07-09T13:26:53;6.78;;;4.05;;
12208;SDS011;6167;43.080;25.634;2023-07-09T13:29:20;3.85;;;3.50;;
12208;SDS011;6167;43.080;25.634;2023-07-09T13:31:47;4.57;;;3.70;;
12208;SDS011;6167;43.080;25.634;2023-07-09T13:34:18;4.35;;;3.55;;
12208;SDS011;6167;43.080;25.634;2023-07-09T13:36:44;4.68;;;4.20;;
12208;SDS011;6167;43.080;25.634;2023-07-09T13:39:16;5.43;;;3.50;;
12208;SDS011;6167;43.080;25.634;2023-07-09T13:41:43;26.77;;;24.02;;
12208;SDS011;6167;43.080;25.634;2023-07-09T13:44:13;4.05;;;3.75;;
12208;SDS011;6167;43.080;25.634;2023-07-09T13:46:40;4.25;;;3.88;;
12208;SDS011;6167;43.080;25.634;2023-07-09T13:49:09;3.90;;;3.60;;
12208;SDS011;6167;43.080;25.634;2023-07-09T13:51:35;3.42;;;3.22;;
12208;SDS011;6167;43.080;25.634;2023-07-09T13:54:06;4.10;;;3.40;;
12208;SDS011;6167;43.080;25.634;2023-07-09T13:56:32;4.43;;;3.78;;
12208;SDS011;6167;43.080;25.634;2023-07-09T13:58:59;4.07;;;3.78;;
12208;SDS011;6167;43.080;25.634;2023-07-09T14:01:27;5.43;;;4.00;;
12208;SDS011;6167;43.080;25.634;2023-07-09T14:03:54;5.53;;;3.97;;
12208;SDS011;6167;43.080;25.634;2023-07-09T14:06:23;5.82;;;4.22;;
12208;SDS011;6167;43.080;25.634;2023-07-09T14:08:50;3.95;;;3.65;;
12208;SDS011;6167;43.080;25.634;2023-07-09T14:11:16;4.95;;;4.05;;
12208;SDS011;6167;43.080;25.634;2023-07-09T14:13:43;5.75;;;3.80;;
12208;SDS011;6167;43.080;25.634;2023-07-09T14:16:10;7.10;;;3.80;;
12208;SDS011;6167;43.080;25.634;2023-07-09T14:18:39;4.95;;;3.67;;
12208;SDS011;6167;43.080;25.634;2023-07-09T14:21:06;4.10;;;3.80;;
12208;SDS011;6167;43.080;25.634;2023-07-09T14:23:36;6.60;;;3.85;;
12208;SDS011;6167;43.080;25.634;2023-07-09T14:26:02;3.95;;;3.65;;
12208;SDS011;6167;43.080;25.634;2023-07-09T14:28:31;5.18;;;4.68;;
12208;SDS011;6167;43.080;25.634;2023-07-09T14:30:57;5.45;;;4.95;;
12208;SDS011;6167;43.080;25.634;2023-07-09T14:33:24;6.43;;;5.78;;
12208;SDS011;6167;43.080;25.634;2023-07-09T14:35:52;4.20;;;3.90;;
12208;SDS011;6167;43.080;25.634;2023-07-09T14:38:19;4.20;;;3.90;;
12208;SDS011;6167;43.080;25.634;2023-07-09T14:40:46;4.05;;;3.75;;
12208;SDS011;6167;43.080;25.634;2023-07-09T14:43:14;6.00;;;4.68;;
12208;SDS011;6167;43.080;25.634;2023-07-09T14:45:42;4.18;;;3.78;;
12208;SDS011;6167;43.080;25.634;2023-07-09T14:48:09;3.97;;;3.55;;
12208;SDS011;6167;43.080;25.634;2023-07-09T14:50:37;3.90;;;3.60;;